Pagrindinis puslapis
METAR-TAF:

METAR-TAF

Oro uostai :

Pearland Regional Airport

Hiustonas-Pearland, Teksasas, Jungtinės Amerikos Valstijos

platuma: 29-31-16N, ilguma: 095-14-31W, Aukštis: 13 m

Dabartinis oras

Ataskaita buvo paskelbta 40 minutes, ne 02:53 UTC
Vėjas 4 kt iš Pietų/Pietryčių
Temperatūra 22°C
Drėgmė 94%
Slėgis 1015 hPa
Matomumas: 16.1 km
Su prošvaistėmis ne aukštis 5500 ft

METAR: KLVJ 170253Z AUTO 16004KT 10SM BKN055 22/21 A2996 RMK AO2 SLP144 60006 T02220206 51016 $

Laikas: 22:33 (03:33 UTC)


TAF: trūkstamas

Orai ataskaitas ir orų prognozės (METAR, TAF).

turimą stotys yra geltonos ir raudonos taškus žemėlapyje.

Perkelti pele per norėdami pamatyti stoties vardą.

Tada spustelėkite, norėdami matyti oro stebėjimo ir prognozės.

Norėdami pakeisti žemėlapį: spustelėkite ant žalios mygtukų su juodo kryžiaus žemyn,; žalią mygtuką su brūkšneliu, jei norite nutolinti; arba žalių rodyklių gretimoms žemėlapius.


METAR-TAF: